F/V Le Dolmen — FHMD — position and weather

sailwx.info

Track history (hours):
 
Tides and Currents Weather Stations Pressure Air Temp Water Temp Dewpoint Dewpoint Depression Visibility Wind Speed Wind Dir Waves Ship Positions

F/V Le Dolmen

Last reported at 2014-Jul-18 17:08 UTC. Time now 2014-Jul-22 23:10 UTC.
Position N 47°40' W 003°27'.

Length 18 m.

Type: Fishing. MMSI: 228374000.

Date/timePositionNaut miles runAvg speedWind from/ knotsBaromVisibWave heightAir tempDewpointWater temp
2014-Jul-18 17:08N 47°40' W 003°27'5 8.0
2014-Jul-18 16:33N 47°44' W 003°22'3 3.1
2014-Jul-18 15:34N 47°41' W 003°22'10 9.8
2014-Jul-18 14:33N 47°31' W 003°28'1 0.8
2014-Jul-18 13:30N 47°32' W 003°28'5 4.9
2014-Jul-18 12:34N 47°36' W 003°23'8 8.2
2014-Jul-18 11:33N 47°44' W 003°22'0 0.0
2014-Jul-18 10:34N 47°44' W 003°22'0 0.1
2014-Jul-18 09:33N 47°44' W 003°22'0 0.1
2014-Jul-18 08:18N 47°44' W 003°22'0 0.0
2014-Jul-17 17:14N 47°44' W 003°22'0 0.0
2014-Jul-17 16:34N 47°44' W 003°22'0 0.0
2014-Jul-17 15:34N 47°44' W 003°22'0 0.0
2014-Jul-17 14:33N 47°44' W 003°22'0 0.0
2014-Jul-17 13:34N 47°44' W 003°22'0 0.0
2014-Jul-17 12:34N 47°44' W 003°22'0 0.0
2014-Jul-17 11:34N 47°44' W 003°22'0 0.0
2014-Jul-17 10:34N 47°44' W 003°22'0 0.0
2014-Jul-17 09:34N 47°44' W 003°22'0 0.0
2014-Jul-17 08:34N 47°44' W 003°22'0 0.0
2014-Jul-17 07:34N 47°44' W 003°22'0 0.2
2014-Jul-17 06:34N 47°44' W 003°22'  
Track history (hours):
 
Tides and Currents Weather Stations Pressure Air Temp Water Temp Dewpoint Dewpoint Depression Visibility Wind Speed Wind Dir Waves Ship Positions

F/V Le Dolmen

Last reported at 2014-Jul-18 17:08 UTC. Time now 2014-Jul-22 23:10 UTC.
Position N 47°40' W 003°27'.

Length 18 m.

Type: Fishing. MMSI: 228374000.

Date/timePositionNaut miles runAvg speedWind from/ knotsBaromVisibWave heightAir tempDewpointWater temp
2014-Jul-18 17:08N 47°40' W 003°27'5 8.0
2014-Jul-18 16:33N 47°44' W 003°22'3 3.1
2014-Jul-18 15:34N 47°41' W 003°22'10 9.8
2014-Jul-18 14:33N 47°31' W 003°28'1 0.8
2014-Jul-18 13:30N 47°32' W 003°28'5 4.9
2014-Jul-18 12:34N 47°36' W 003°23'8 8.2
2014-Jul-18 11:33N 47°44' W 003°22'0 0.0
2014-Jul-18 10:34N 47°44' W 003°22'0 0.1
2014-Jul-18 09:33N 47°44' W 003°22'0 0.1
2014-Jul-18 08:18N 47°44' W 003°22'0 0.0
2014-Jul-17 17:14N 47°44' W 003°22'0 0.0
2014-Jul-17 16:34N 47°44' W 003°22'0 0.0
2014-Jul-17 15:34N 47°44' W 003°22'0 0.0
2014-Jul-17 14:33N 47°44' W 003°22'0 0.0
2014-Jul-17 13:34N 47°44' W 003°22'0 0.0
2014-Jul-17 12:34N 47°44' W 003°22'0 0.0
2014-Jul-17 11:34N 47°44' W 003°22'0 0.0
2014-Jul-17 10:34N 47°44' W 003°22'0 0.0
2014-Jul-17 09:34N 47°44' W 003°22'0 0.0
2014-Jul-17 08:34N 47°44' W 003°22'0 0.0
2014-Jul-17 07:34N 47°44' W 003°22'0 0.2
2014-Jul-17 06:34N 47°44' W 003°22'  

Dump ship's entire track history